Latest Weather Observations for Creal Reef

IDQ60801

Issued at 2:02 pm EST Friday 24 February 2017 (issued every 30 minutes, with the page automatically refreshed every 10 minutes)

About weather observations | Map of weather stations | Latest weather observations for QLD | Other Formats
Station Details ID: 200736 Name: CREAL REEF Lat: -20.53 Lon: 150.38 Height: 1.7 m
Data from the previous 72 hours. | See also: Recent months for locations in Queensland
Date/Time
EST
Temp
°C
App
Temp
°C
Dew
Point
°C
Rel
Hum
%
Delta-T
°C
Wind Press
QNH
hPa
Press
MSL
hPa
Rain since
9am
mm
Dir  Spd
km/h
Gust
km/h
Spd
kts
Gust
kts
24/02:00pm 27.7 - - - - SSE 30 33 16 18 1011.8 - -
24/01:30pm 28.8 - - - - SE 24 28 13 15 1012.0 - -
24/01:20pm 28.5 - - - - ESE 22 - 12 - - 1012.0 -
24/01:00pm 28.7 - - - - SE 26 30 14 16 1012.3 - -
24/12:30pm 28.4 - - - - SE 28 32 15 17 1012.6 - -
24/12:20pm 28.2 - - - - ESE 24 - 13 - - 1012.6 -
24/12:00pm 26.6 - - - - ENE 17 39 9 21 1013.0 - -
24/11:30am 28.3 - - - - ESE 22 24 12 13 1013.1 - -
24/11:20am 28.7 - - - - ESE 22 - 12 - - 1013.2 -
24/11:00am 28.3 - - - - ESE 22 28 12 15 1013.4 - -
24/10:30am 28.4 - - - - ESE 28 32 15 17 1013.5 - -
24/10:20am 28.3 - - - - ESE 28 - 15 - - 1013.3 -
24/10:00am 28.1 - - - - ESE 28 32 15 17 1013.4 - -
24/09:30am 28.5 - - - - ESE 26 30 14 16 1013.4 - -
24/09:20am 28.2 - - - - E 28 - 15 - - 1013.2 -
24/09:00am 28.5 - - - - ESE 28 32 15 17 1013.4 - -
24/08:30am 28.1 - - - - ESE 22 26 12 14 1013.4 - -
24/08:20am 28.0 - - - - ESE 24 - 13 - - 1013.3 -
24/08:00am 28.1 - - - - ESE 24 28 13 15 1013.4 - -
24/07:30am 27.6 - - - - ESE 26 30 14 16 1013.1 - -
24/07:20am 27.8 - - - - ESE 28 - 15 - - 1012.9 -
24/07:00am 28.1 - - - - ESE 30 35 16 19 1013.0 - -
24/06:30am 27.9 - - - - ESE 30 35 16 19 1012.7 - -
24/06:20am 28.1 - - - - ESE 32 - 17 - - 1012.6 -
24/06:00am 28.0 - - - - ESE 30 35 16 19 1012.6 - -
24/05:30am 28.0 - - - - ESE 33 39 18 21 1012.4 - -
24/05:20am 27.9 - - - - ESE 35 - 19 - - 1012.3 -
24/05:00am 27.7 - - - - ESE 39 41 21 22 1012.2 - -
24/04:30am 27.7 - - - - SE 44 50 24 27 1012.1 - -
24/04:20am 27.9 - - - - SE 43 - 23 - - 1011.9 -
24/04:00am 27.7 - - - - SE 41 46 22 25 1012.1 - -
24/03:30am 27.5 - - - - SE 46 54 25 29 1012.0 - -
24/03:20am 27.6 - - - - SE 44 - 24 - - 1011.9 -
24/03:00am 27.8 - - - - SE 44 50 24 27 1012.0 - -
24/02:30am 28.1 - - - - SE 43 50 23 27 1012.2 - -
24/02:20am 27.8 - - - - SE 43 - 23 - - 1012.1 -
24/02:00am 27.9 - - - - SE 41 48 22 26 1012.5 - -
24/01:30am 28.0 - - - - SE 41 48 22 26 1012.9 - -
24/01:20am 28.0 - - - - SE 41 - 22 - - 1012.9 -
24/01:00am 28.1 - - - - SSE 37 43 20 23 1013.3 - -
24/12:30am 28.0 - - - - SE 39 46 21 25 1013.5 - -
24/12:20am 28.0 - - - - SE 41 - 22 - - 1013.5 -
24/12:00am 28.1 - - - - SE 41 48 22 26 1013.8 - -
 
Date/Time
EST
Temp
°C
App
Temp
°C
Dew
Point
°C
Rel
Hum
%
Delta-T
°C
Wind Press
QNH
hPa
Press
MSL
hPa
Rain since
9am
mm
Dir  Spd
km/h
Gust
km/h
Spd
kts
Gust
kts
23/11:30pm 28.1 - - - - SE 39 46 21 25 1013.9 - -
23/11:20pm 28.3 - - - - SE 37 - 20 - - 1013.9 -
23/11:00pm 28.2 - - - - SE 39 44 21 24 1013.9 - -
23/10:30pm 28.2 - - - - SSE 41 46 22 25 1013.9 - -
23/10:20pm 28.1 - - - - SSE 39 - 21 - - 1013.7 -
23/10:00pm 28.0 - - - - SSE 39 46 21 25 1013.9 - -
23/09:30pm 28.1 - - - - SSE 37 44 20 24 1013.9 - -
23/09:20pm 28.1 - - - - SSE 41 - 22 - - 1013.8 -
23/09:00pm 27.6 - - - - SE 32 39 17 21 1014.0 - -
23/08:30pm 28.0 - - - - SE 37 43 20 23 1013.8 - -
23/08:20pm 27.6 - - - - SE 39 - 21 - - 1013.6 -
23/08:00pm 27.0 - - - - ESE 41 46 22 25 1013.5 - -
23/07:30pm 27.7 - - - - SE 39 50 21 27 1013.3 - -
23/07:20pm 27.9 - - - - SE 39 - 21 - - 1013.0 -
23/07:00pm 27.8 - - - - SE 39 44 21 24 1013.2 - -
23/06:30pm 28.4 - - - - SE 39 46 21 25 1012.8 - -
23/06:20pm 28.4 - - - - SE 37 - 20 - - 1012.6 -
23/06:00pm 27.9 - - - - SE 39 46 21 25 1012.5 - -
23/05:30pm 28.3 - - - - SE 41 46 22 25 1012.1 - -
23/05:20pm 28.1 - - - - SE 39 - 21 - - 1012.0 -
23/05:00pm 28.2 - - - - SE 39 46 21 25 1011.9 - -
23/04:30pm 28.4 - - - - SE 39 43 21 23 1011.8 - -
23/04:20pm 28.3 - - - - SE 37 - 20 - - 1011.7 -
23/04:00pm 28.4 - - - - SE 41 48 22 26 1011.7 - -
23/03:30pm 28.2 - - - - SE 37 43 20 23 1011.8 - -
23/03:20pm 28.2 - - - - SSE 37 - 20 - - 1011.7 -
23/03:00pm 28.2 - - - - SE 33 39 18 21 1012.0 - -
23/02:30pm 28.3 - - - - SE 30 35 16 19 1012.3 - -
23/02:20pm 28.3 - - - - SE 32 - 17 - - 1012.2 -
23/02:00pm 28.1 - - - - SE 33 39 18 21 1012.4 - -
23/01:30pm 27.8 - - - - SE 33 37 18 20 1012.8 - -
23/01:20pm 28.0 - - - - SE 33 - 18 - - 1012.7 -
23/01:00pm 27.9 - - - - SE 33 39 18 21 1013.0 - -
23/12:30pm 27.8 - - - - SE 32 37 17 20 1012.9 - -
23/12:20pm 27.7 - - - - SE 32 - 17 - - 1012.9 -
23/12:00pm 27.8 - - - - SE 30 33 16 18 1013.4 - -
23/11:30am 27.4 - - - - ESE 32 37 17 20 1013.9 - -
23/11:20am 27.4 - - - - ESE 33 - 18 - - 1013.9 -
23/11:00am 28.1 - - - - SE 32 37 17 20 1014.1 - -
23/10:30am 27.7 - - - - SE 32 35 17 19 1014.3 - -
23/10:20am 27.7 - - - - SE 32 - 17 - - 1014.2 -
23/10:00am 27.7 - - - - SE 33 39 18 21 1014.2 - -
23/09:30am 27.2 - - - - SE 30 35 16 19 1014.4 - -
23/09:20am 27.4 - - - - SE 30 - 16 - - 1014.2 -
23/09:00am 26.6 - - - - SE 30 35 16 19 1014.2 - -
23/08:30am 26.9 - - - - SE 28 32 15 17 1014.3 - -
23/08:20am 26.7 - - - - SE 30 - 16 - - 1014.2 -
23/08:00am 26.6 - - - - E 30 33 16 18 1014.4 - -
23/07:30am 25.3 - - - - E 43 50 23 27 1014.2 - -
23/07:20am 26.5 - - - - E 43 48 23 26 1014.0 1013.9 -
23/07:19am 26.8 - - - - ESE 37 48 20 26 1014.0 - -
23/07:00am 27.1 - - - - E 30 35 16 19 1013.7 - -
23/06:30am 26.7 - - - - E 37 43 20 23 1013.4 - -
23/06:20am 26.1 - - - - ENE 37 - 20 - - 1013.2 -
23/06:00am 26.3 - - - - E 35 44 19 24 1013.2 - -
23/05:51am 27.4 - - - - E 43 50 23 27 1013.0 - -
23/05:30am 27.4 - - - - SE 44 52 24 28 1012.7 - -
23/05:20am 27.3 - - - - SE 44 - 24 - - 1012.4 -
23/05:13am 26.8 - - - - SE 43 46 23 25 1012.6 - -
23/05:00am 26.2 - - - - E 26 30 14 16 1012.6 - -
23/04:30am 25.5 - - - - ESE 32 39 17 21 1012.5 - -
23/04:20am 25.8 - - - - ESE 44 - 24 - - 1012.4 -
23/04:00am 26.7 - - - - E 37 48 20 26 1012.2 - -
23/03:30am 26.4 - - - - E 39 46 21 25 1012.0 - -
23/03:20am 26.4 - - - - E 41 - 22 - - 1011.9 -
23/03:00am 26.3 - - - - E 46 56 25 30 1012.1 - -
23/02:41am 26.9 - - - - ESE 46 57 25 31 1012.1 - -
23/02:30am 28.3 - - - - SE 41 52 22 28 1012.1 - -
23/02:20am 27.6 - - - - ESE 37 - 20 - - 1012.0 -
23/02:00am 26.7 - - - - ESE 41 48 22 26 1012.2 - -
23/01:30am 27.2 - - - - ESE 39 50 21 27 1012.5 - -
23/01:20am 27.1 - - - - ESE 44 - 24 - - 1012.6 -
23/01:00am 28.1 - - - - SE 39 44 21 24 1012.7 - -
23/12:30am 28.0 - - - - SE 41 46 22 25 1012.9 - -
23/12:20am 28.1 - - - - SE 43 - 23 - - 1012.9 -
23/12:00am 28.2 - - - - SE 43 52 23 28 1013.3 - -
 
Date/Time
EST
Temp
°C
App
Temp
°C
Dew
Point
°C
Rel
Hum
%
Delta-T
°C
Wind Press
QNH
hPa
Press
MSL
hPa
Rain since
9am
mm
Dir  Spd
km/h
Gust
km/h
Spd
kts
Gust
kts
22/11:30pm 28.3 - - - - SE 39 43 21 23 1013.4 - -
22/11:20pm 28.5 - - - - ESE 39 - 21 - - 1013.3 -
22/11:00pm 28.2 - - - - SE 37 43 20 23 1013.5 - -
22/10:30pm 28.3 - - - - SE 39 44 21 24 1013.5 - -
22/10:20pm 28.4 - - - - SE 41 - 22 - - 1013.4 -
22/10:00pm 28.6 - - - - ESE 41 48 22 26 1013.4 - -
22/09:30pm 28.6 - - - - ESE 37 43 20 23 1013.2 - -
22/09:20pm 28.4 - - - - SE 41 - 22 - - 1013.1 -
22/09:00pm 28.2 - - - - SE 39 46 21 25 1013.1 - -
22/08:30pm 28.3 - - - - SE 37 43 20 23 1012.9 - -
22/08:20pm 28.0 - - - - SE 35 - 19 - - 1012.7 -
22/08:00pm 27.3 - - - - SSE 26 37 14 20 1012.7 - -
22/07:50pm 26.4 - - - - ESE 30 50 16 27 1012.8 - -
22/07:30pm 27.2 - - - - SSE 37 46 20 25 1012.4 - -
22/07:20pm 26.8 - - - - SSE 41 - 22 - - 1012.3 -
22/07:00pm 27.8 - - - - SSE 32 39 17 21 1012.1 - -
22/06:30pm 28.4 - - - - SE 30 33 16 18 1011.8 - -
22/06:20pm 28.4 - - - - SSE 30 - 16 - - 1011.7 -
22/06:00pm 28.5 - - - - SE 26 30 14 16 1011.7 - -
22/05:30pm 28.7 - - - - ESE 30 35 16 19 1011.4 - -
22/05:20pm 28.8 - - - - SE 30 - 16 - - 1011.3 -
22/05:00pm 28.6 - - - - SE 28 32 15 17 1011.3 - -
22/04:30pm 28.3 - - - - SSE 24 32 13 17 1011.3 - -
22/04:20pm 28.2 - - - - SSE 28 - 15 - - 1011.2 -
22/04:00pm 28.4 - - - - SSE 24 32 13 17 1011.3 - -
22/03:30pm 28.4 - - - - SSE 22 30 12 16 1011.3 - -
22/03:20pm 27.7 - - - - S 20 - 11 - - 1011.2 -
22/03:00pm 27.8 - - - - S 32 35 17 19 1011.4 - -
22/02:30pm 28.6 - - - - SE 28 32 15 17 1011.5 - -
22/02:20pm 28.5 - - - - SE 30 - 16 - - 1011.4 -
22/02:00pm 28.6 - - - - SE 30 33 16 18 1011.7 - -
22/01:30pm 28.6 - - - - SE 30 33 16 18 1011.8 - -
22/01:20pm 28.7 - - - - SE 30 - 16 - - 1011.7 -
22/01:00pm 28.5 - - - - SE 28 32 15 17 1012.0 - -
22/12:30pm 28.5 - - - - SSE 28 32 15 17 1012.4 - -
22/12:20pm 28.4 - - - - SSE 28 - 15 - - 1012.3 -
22/12:00pm 28.5 - - - - SSE 30 33 16 18 1012.6 - -
22/11:30am 28.5 - - - - SE 28 32 15 17 1013.0 - -
22/11:20am 28.5 - - - - SE 28 - 15 - - 1013.1 -
22/11:00am 28.4 - - - - SSE 28 32 15 17 1013.3 - -
22/10:30am 28.4 - - - - SSE 28 32 15 17 1013.4 - -
22/10:20am 28.5 - - - - SSE 30 - 16 - - 1013.4 -
22/10:00am 28.5 - - - - SSE 28 32 15 17 1013.7 - -
22/09:30am 28.4 - - - - SE 24 28 13 15 1013.8 - -
22/09:20am 28.4 - - - - ESE 24 - 13 - - 1013.7 -
22/09:00am 28.3 - - - - SE 28 32 15 17 1013.8 - -
22/08:30am 28.2 - - - - SE 26 30 14 16 1013.5 - -
22/08:20am 28.5 - - - - SE 26 - 14 - - 1013.4 -
22/08:00am 28.3 - - - - SE 24 28 13 15 1013.4 - -
22/07:30am 27.7 - - - - ESE 17 28 9 15 1013.3 - -
22/07:20am 27.5 - - - - SE 26 - 14 - - 1013.2 -
22/07:00am 28.1 - - - - SE 26 30 14 16 1013.1 - -
22/06:30am 28.0 - - - - ESE 28 32 15 17 1012.9 - -
22/06:20am 27.9 - - - - ESE 26 - 14 - - 1012.8 -
22/06:00am 28.2 - - - - ESE 24 28 13 15 1012.8 - -
22/05:30am 27.2 - - - - SE 22 33 12 18 1012.5 - -
22/05:20am 27.6 - - - - ESE 28 - 15 - - 1012.2 -
22/05:00am 28.2 - - - - ESE 24 28 13 15 1012.2 - -
22/04:30am 28.2 - - - - ESE 24 28 13 15 1011.9 - -
22/04:20am 28.4 - - - - SE 26 - 14 - - 1011.8 -
22/04:00am 28.4 - - - - ESE 22 26 12 14 1012.0 - -
22/03:30am 27.9 - - - - ESE 20 26 11 14 1011.6 - -
22/03:20am 28.1 - - - - SE 22 - 12 - - 1011.6 -
22/03:00am 28.2 - - - - ESE 24 28 13 15 1011.7 - -
22/02:30am 28.3 - - - - ESE 26 30 14 16 1012.0 - -
22/02:20am 28.1 - - - - ESE 24 - 13 - - 1012.0 -
22/02:00am 28.2 - - - - ESE 26 32 14 17 1012.3 - -
22/01:30am 28.1 - - - - ESE 24 28 13 15 1012.5 - -
22/01:20am 28.2 - - - - ESE 24 - 13 - - 1012.5 -
22/01:00am 28.1 - - - - ESE 26 32 14 17 1012.8 - -
22/12:30am 28.2 - - - - ESE 30 33 16 18 1012.8 - -
22/12:20am 28.3 - - - - ESE 30 - 16 - - 1012.7 -
22/12:00am 28.4 - - - - ESE 30 35 16 19 1013.0 - -
 
Date/Time
EST
Temp
°C
App
Temp
°C
Dew
Point
°C
Rel
Hum
%
Delta-T
°C
Wind Press
QNH
hPa
Press
MSL
hPa
Rain since
9am
mm
Dir  Spd
km/h
Gust
km/h
Spd
kts
Gust
kts
21/11:30pm 28.3 - - - - ESE 30 33 16 18 1013.0 - -
21/11:20pm 28.4 - - - - ESE 28 - 15 - - 1013.1 -
21/11:00pm 28.3 - - - - ESE 30 33 16 18 1013.2 - -
21/10:30pm 28.5 - - - - ESE 28 33 15 18 1013.2 - -
21/10:20pm 28.3 - - - - ESE 32 - 17 - - 1013.1 -
21/10:00pm 28.6 - - - - ESE 28 32 15 17 1013.4 - -
21/09:30pm 28.3 - - - - ESE 30 32 16 17 1013.3 - -
21/09:20pm 28.3 - - - - ESE 28 - 15 - - 1013.2 -
21/09:00pm 28.5 - - - - ESE 28 32 15 17 1013.2 - -
21/08:30pm 28.3 - - - - ESE 26 32 14 17 1012.9 - -
21/08:20pm 28.5 - - - - SE 26 - 14 - - 1012.8 -
21/08:00pm 28.5 - - - - SE 26 30 14 16 1012.6 - -
21/07:30pm 28.5 - - - - SE 28 32 15 17 1012.6 - -
21/07:20pm 28.4 - - - - SE 26 - 14 - - 1012.4 -
21/07:00pm 28.6 - - - - SE 24 28 13 15 1012.5 - -
21/06:30pm 28.7 - - - - ESE 22 26 12 14 1012.2 - -
21/06:20pm 28.5 - - - - SE 22 - 12 - - 1012.1 -
21/06:00pm 28.6 - - - - SE 22 26 12 14 1012.0 - -
21/05:30pm 28.8 - - - - SE 20 24 11 13 1011.9 - -
21/05:20pm 28.6 - - - - SSE 22 - 12 - - 1011.8 -
21/05:00pm 28.7 - - - - SE 20 24 11 13 1011.8 - -
21/04:30pm 28.7 - - - - SSE 19 24 10 13 1011.7 - -
21/04:20pm 28.7 - - - - SSE 19 - 10 - - 1011.4 -
21/04:00pm 28.6 - - - - SSE 20 26 11 14 1011.6 - -
21/03:30pm 28.7 - - - - SSE 20 24 11 13 1011.5 - -
21/03:20pm 28.7 - - - - SSE 19 - 10 - - 1011.4 -
21/03:00pm 28.7 - - - - SSE 19 22 10 12 1011.8 - -
21/02:30pm 28.7 - - - - SSE 19 20 10 11 1012.0 - -
21/02:20pm 28.8 - - - - SSE 19 - 10 - - 1011.9 -

Other Formats:

Comma delimited format used in spreadsheet applications
http://www.bom.gov.au/fwo/IDQ60801/IDQ60801.94371.axf

JavaScript Object Notation format (JSON) in row-major order
http://www.bom.gov.au/fwo/IDQ60801/IDQ60801.94371.json